Time;durP1;ratioP1;P1;durP2;ratioP2;P2;SDS_P1;SDS_P2;PMS_P1;PMS_P2;Temp;Humidity;BMP_temperature;BMP_pressure;BME280_temperature;BME280_humidity;BME280_pressure;Samples;Min_cycle;Max_cycle;Signal;HPM_P1;HPM_P2
2023/07/13 00:01:16;;;;;;;5.63;2.08;;;;;;;;;;4998650;28;20521;-66
2023/07/13 00:03:42;;;;;;;3.85;2.25;;;;;;;;;;5021395;28;20028;-66
2023/07/13 00:06:08;;;;;;;3.28;2.08;;;;;;;;;;5020797;28;20026;-65
2023/07/13 00:08:34;;;;;;;3.78;2.28;;;;;;;;;;5022703;28;20112;-65
2023/07/13 00:11:01;;;;;;;4.78;2.33;;;;;;;;;;5021678;28;20026;-65
2023/07/13 00:13:27;;;;;;;5.32;2.65;;;;;;;;;;5023254;28;20109;-67
2023/07/13 00:15:53;;;;;;;4.40;2.40;;;;;;;;;;5031753;28;20390;-66
2023/07/13 00:18:19;;;;;;;7.45;2.70;;;;;;;;;;5033680;28;20076;-65
2023/07/13 00:20:45;;;;;;;4.95;2.20;;;;;;;;;;5024805;28;20026;-65
2023/07/13 00:23:11;;;;;;;5.25;2.60;;;;;;;;;;5013484;28;20037;-65
2023/07/13 00:25:37;;;;;;;6.05;2.15;;;;;;;;;;5013427;28;20063;-65
2023/07/13 00:28:02;;;;;;;3.95;2.38;;;;;;;;;;5013287;28;20052;-67
2023/07/13 00:30:28;;;;;;;4.97;2.15;;;;;;;;;;5013274;28;20111;-65
2023/07/13 00:32:53;;;;;;;6.00;2.42;;;;;;;;;;5013110;28;20383;-67
2023/07/13 00:35:19;;;;;;;6.05;2.95;;;;;;;;;;5013314;28;20108;-66
2023/07/13 00:37:45;;;;;;;3.05;2.10;;;;;;;;;;5013202;28;20029;-66
2023/07/13 00:40:12;;;;;;;5.43;2.10;;;;;;;;;;5012926;28;20030;-66
2023/07/13 00:42:38;;;;;;;3.92;2.00;;;;;;;;;;5013016;28;20033;-66
2023/07/13 00:45:07;;;;;;;3.17;1.88;;;;;;;;;;5013224;28;20026;-65
2023/07/13 00:47:32;;;;;;;4.03;2.22;;;;;;;;;;5012564;28;20033;-66
2023/07/13 00:49:58;;;;;;;3.95;2.00;;;;;;;;;;5012323;28;20034;-65
2023/07/13 00:52:24;;;;;;;4.97;1.80;;;;;;;;;;5012931;28;20026;-65
2023/07/13 00:54:50;;;;;;;4.45;1.70;;;;;;;;;;5012951;28;20052;-65
2023/07/13 00:57:18;;;;;;;2.30;1.40;;;;;;;;;;5012995;28;20034;-65
2023/07/13 00:59:48;;;;;;;4.07;1.85;;;;;;;;;;5012903;28;20065;-66
2023/07/13 01:02:14;;;;;;;6.20;2.35;;;;;;;;;;5012668;28;20021;-66
2023/07/13 01:04:39;;;;;;;3.13;1.67;;;;;;;;;;5012792;28;20091;-66
2023/07/13 01:07:06;;;;;;;3.72;1.90;;;;;;;;;;5012852;28;20022;-66
2023/07/13 01:09:32;;;;;;;3.17;1.55;;;;;;;;;;5012586;28;20056;-66
2023/07/13 01:11:59;;;;;;;3.28;2.00;;;;;;;;;;5012847;28;20459;-66
2023/07/13 01:17:00;;;;;;;5.53;1.92;;;;;;;;;;5764849;22;20500;-66
2023/07/13 01:19:35;;;;;;;2.25;1.40;;;;;;;;;;5052573;28;20028;-69
2023/07/13 01:22:02;;;;;;;3.35;1.65;;;;;;;;;;5072099;28;20056;-67
2023/07/13 01:24:28;;;;;;;3.22;1.70;;;;;;;;;;5072316;28;20443;-67
2023/07/13 01:26:54;;;;;;;6.15;1.65;;;;;;;;;;5072003;28;20495;-66
2023/07/13 01:29:20;;;;;;;6.72;1.90;;;;;;;;;;5072219;28;20064;-64
2023/07/13 01:31:45;;;;;;;6.30;2.03;;;;;;;;;;5071990;28;20063;-67
2023/07/13 01:34:11;;;;;;;5.45;1.80;;;;;;;;;;5071995;28;20048;-67
2023/07/13 01:36:36;;;;;;;4.22;1.55;;;;;;;;;;5072133;28;20373;-67
2023/07/13 01:39:03;;;;;;;2.83;1.55;;;;;;;;;;5071983;28;20047;-68
2023/07/13 01:41:28;;;;;;;3.03;1.45;;;;;;;;;;5072064;28;20020;-67
2023/07/13 01:43:54;;;;;;;2.95;1.60;;;;;;;;;;5071999;28;20566;-66
2023/07/13 01:46:19;;;;;;;5.57;1.80;;;;;;;;;;5059418;28;20025;-67
2023/07/13 01:48:45;;;;;;;3.40;1.63;;;;;;;;;;5051816;28;20029;-67
2023/07/13 01:51:10;;;;;;;5.07;1.70;;;;;;;;;;5059811;28;20025;-68
2023/07/13 01:53:36;;;;;;;4.78;1.70;;;;;;;;;;5071769;28;20044;-68
2023/07/13 01:56:02;;;;;;;6.45;1.80;;;;;;;;;;5071717;28;20249;-69
2023/07/13 01:58:27;;;;;;;8.38;2.03;;;;;;;;;;5071653;28;20047;-68
2023/07/13 02:00:53;;;;;;;7.03;1.98;;;;;;;;;;5071457;28;20079;-66
2023/07/13 02:03:19;;;;;;;4.45;1.98;;;;;;;;;;5071789;28;20078;-66
2023/07/13 02:05:45;;;;;;;3.72;1.77;;;;;;;;;;5071633;28;20052;-67
2023/07/13 02:08:11;;;;;;;4.28;1.55;;;;;;;;;;5071537;28;20098;-67
2023/07/13 02:10:37;;;;;;;3.70;1.65;;;;;;;;;;5071461;28;20372;-67
2023/07/13 02:13:05;;;;;;;3.70;1.90;;;;;;;;;;5071367;28;20252;-68
2023/07/13 02:15:31;;;;;;;4.05;1.90;;;;;;;;;;5071110;28;20036;-67
2023/07/13 02:17:56;;;;;;;5.10;1.95;;;;;;;;;;5071000;28;20514;-68
2023/07/13 02:20:22;;;;;;;4.25;1.90;;;;;;;;;;5071302;28;20427;-67
2023/07/13 02:22:47;;;;;;;3.05;2.00;;;;;;;;;;5071159;28;20371;-68
2023/07/13 02:25:14;;;;;;;3.72;2.10;;;;;;;;;;5071052;28;20024;-66
2023/07/13 02:27:39;;;;;;;3.08;1.70;;;;;;;;;;5070628;28;20492;-64
2023/07/13 02:30:05;;;;;;;6.43;1.60;;;;;;;;;;5070978;28;20039;-68
2023/07/13 02:32:31;;;;;;;6.80;2.00;;;;;;;;;;5070983;28;20131;-67
2023/07/13 02:34:56;;;;;;;2.90;1.67;;;;;;;;;;5070936;28;20028;-67
2023/07/13 02:37:21;;;;;;;7.00;2.60;;;;;;;;;;5070988;28;20424;-68
2023/07/13 02:39:47;;;;;;;5.38;1.90;;;;;;;;;;5070991;28;20461;-68
2023/07/13 02:42:13;;;;;;;6.22;2.80;;;;;;;;;;5071093;28;20082;-67
2023/07/13 02:44:39;;;;;;;3.65;2.30;;;;;;;;;;5070786;28;20024;-67
2023/07/13 02:47:04;;;;;;;3.78;1.85;;;;;;;;;;5070740;28;20033;-67
2023/07/13 02:49:29;;;;;;;4.43;1.85;;;;;;;;;;5070877;28;20028;-68
2023/07/13 02:51:55;;;;;;;4.88;2.30;;;;;;;;;;5070662;28;20380;-67
2023/07/13 02:54:20;;;;;;;3.15;2.00;;;;;;;;;;5070703;28;20031;-68
2023/07/13 02:56:46;;;;;;;4.07;2.00;;;;;;;;;;5070732;28;20104;-68
2023/07/13 02:59:12;;;;;;;7.40;2.45;;;;;;;;;;5070424;28;20035;-68
2023/07/13 03:01:37;;;;;;;4.07;2.30;;;;;;;;;;5070738;28;20055;-68
2023/07/13 03:04:03;;;;;;;6.20;2.60;;;;;;;;;;5070713;28;20392;-68
2023/07/13 03:06:31;;;;;;;4.55;2.08;;;;;;;;;;5070320;28;20035;-68
2023/07/13 03:08:56;;;;;;;9.63;2.20;;;;;;;;;;5070521;28;20064;-68
2023/07/13 03:11:22;;;;;;;3.85;2.00;;;;;;;;;;5070596;28;20050;-67
2023/07/13 03:13:48;;;;;;;3.63;2.10;;;;;;;;;;5070409;28;20043;-67
2023/07/13 03:16:15;;;;;;;3.58;2.40;;;;;;;;;;5070315;28;20028;-69
2023/07/13 03:18:41;;;;;;;4.20;1.90;;;;;;;;;;5070571;28;20124;-68
2023/07/13 03:21:07;;;;;;;4.07;2.08;;;;;;;;;;5070054;28;20132;-68
2023/07/13 03:23:32;;;;;;;8.32;2.60;;;;;;;;;;5070309;28;20039;-68
2023/07/13 03:26:08;;;;;;;7.15;2.40;;;;;;;;;;5070144;28;20029;-67
2023/07/13 03:28:34;;;;;;;11.60;2.60;;;;;;;;;;5070171;28;20024;-69
2023/07/13 03:31:05;;;;;;;5.68;2.50;;;;;;;;;;5070424;28;20070;-68
2023/07/13 03:33:31;;;;;;;6.55;2.50;;;;;;;;;;5070395;28;20455;-68
2023/07/13 03:35:57;;;;;;;7.88;2.75;;;;;;;;;;5070325;28;20077;-66
2023/07/13 03:38:22;;;;;;;5.15;2.30;;;;;;;;;;5071518;28;20029;-64
2023/07/13 03:40:48;;;;;;;6.82;2.42;;;;;;;;;;5074143;28;20492;-67
2023/07/13 03:43:14;;;;;;;11.82;3.30;;;;;;;;;;5073739;28;20051;-67
2023/07/13 03:45:39;;;;;;;6.32;2.13;;;;;;;;;;5074327;28;20033;-67
2023/07/13 03:48:05;;;;;;;5.90;2.65;;;;;;;;;;5074251;28;20032;-69
2023/07/13 03:50:31;;;;;;;4.45;2.15;;;;;;;;;;5074056;28;20548;-69
2023/07/13 03:52:58;;;;;;;5.13;2.55;;;;;;;;;;5074007;28;20040;-68
2023/07/13 03:55:23;;;;;;;7.07;2.85;;;;;;;;;;5073963;28;20106;-67
2023/07/13 03:57:59;;;;;;;7.35;2.30;;;;;;;;;;5073733;28;20385;-68
2023/07/13 04:00:25;;;;;;;6.90;3.00;;;;;;;;;;5073893;28;20111;-67
2023/07/13 04:02:50;;;;;;;6.55;2.50;;;;;;;;;;5073851;28;20222;-67
2023/07/13 04:05:16;;;;;;;5.15;2.22;;;;;;;;;;5073862;28;20047;-68
2023/07/13 04:07:41;;;;;;;5.40;2.30;;;;;;;;;;5073873;28;20458;-68
2023/07/13 04:10:07;;;;;;;5.13;2.22;;;;;;;;;;5073610;28;20481;-68
2023/07/13 04:12:33;;;;;;;4.95;2.70;;;;;;;;;;5073625;28;20079;-69
2023/07/13 04:14:58;;;;;;;6.50;2.60;;;;;;;;;;5073581;28;20521;-67
2023/07/13 04:17:24;;;;;;;6.00;2.20;;;;;;;;;;5073358;28;20081;-67
2023/07/13 04:19:49;;;;;;;4.90;2.00;;;;;;;;;;5073514;28;20116;-68
2023/07/13 04:22:15;;;;;;;3.05;2.10;;;;;;;;;;5073487;28;20029;-67
2023/07/13 04:24:40;;;;;;;4.75;2.28;;;;;;;;;;5073368;28;20025;-68
2023/07/13 04:27:06;;;;;;;8.82;2.47;;;;;;;;;;5073024;28;20024;-67
2023/07/13 04:29:37;;;;;;;7.90;2.80;;;;;;;;;;5067987;28;20029;-68
2023/07/13 04:32:02;;;;;;;6.93;2.05;;;;;;;;;;5053597;28;20031;-68
2023/07/13 04:34:28;;;;;;;3.47;2.10;;;;;;;;;;5053552;28;21110;-68
2023/07/13 04:36:53;;;;;;;5.43;2.22;;;;;;;;;;5053230;28;20032;-65
2023/07/13 04:39:18;;;;;;;11.35;2.25;;;;;;;;;;5053053;28;20021;-67
2023/07/13 04:41:44;;;;;;;5.80;2.00;;;;;;;;;;5052994;28;20062;-66
2023/07/13 04:44:09;;;;;;;8.27;2.10;;;;;;;;;;5053063;28;20025;-66
2023/07/13 04:46:35;;;;;;;4.88;1.92;;;;;;;;;;5053153;28;20094;-67
2023/07/13 04:49:00;;;;;;;5.97;1.90;;;;;;;;;;5052290;28;20026;-68
2023/07/13 04:51:26;;;;;;;5.65;2.40;;;;;;;;;;5052076;28;20028;-68
2023/07/13 04:53:52;;;;;;;7.10;2.10;;;;;;;;;;5052744;28;20028;-68
2023/07/13 04:56:19;;;;;;;6.88;2.00;;;;;;;;;;5052640;28;20021;-68
2023/07/13 04:58:45;;;;;;;10.75;2.45;;;;;;;;;;5052652;28;20031;-68
2023/07/13 05:01:10;;;;;;;6.10;2.22;;;;;;;;;;5052802;28;20025;-68
2023/07/13 05:03:36;;;;;;;11.95;2.47;;;;;;;;;;5052745;28;20597;-68
2023/07/13 05:06:04;;;;;;;5.43;2.25;;;;;;;;;;5052858;28;20025;-68
2023/07/13 05:08:30;;;;;;;13.35;2.53;;;;;;;;;;5052298;28;20025;-68
2023/07/13 05:10:56;;;;;;;7.90;2.20;;;;;;;;;;5052548;28;20033;-67
2023/07/13 05:13:22;;;;;;;4.05;1.90;;;;;;;;;;5052659;28;20025;-68
2023/07/13 05:16:07;;;;;;;6.55;2.15;;;;;;;;;;5052033;28;20025;-67
2023/07/13 05:18:33;;;;;;;4.07;2.08;;;;;;;;;;5052329;28;20149;-67
2023/07/13 05:21:05;;;;;;;24.73;3.28;;;;;;;;;;5052413;28;20028;-68
2023/07/13 05:23:32;;;;;;;8.98;2.00;;;;;;;;;;5066896;28;20025;-68
2023/07/13 05:25:58;;;;;;;5.32;1.95;;;;;;;;;;5059927;28;20078;-68
2023/07/13 05:28:23;;;;;;;37.55;4.07;;;;;;;;;;5072113;28;20020;-68
2023/07/13 05:30:50;;;;;;;16.27;2.70;;;;;;;;;;5072314;28;20039;-67
2023/07/13 05:33:15;;;;;;;9.15;1.92;;;;;;;;;;5072215;28;20054;-68
2023/07/13 05:35:41;;;;;;;9.52;2.08;;;;;;;;;;5072105;28;20517;-70
2023/07/13 05:38:06;;;;;;;10.45;2.40;;;;;;;;;;5072046;28;20114;-67
2023/07/13 05:40:32;;;;;;;4.95;1.80;;;;;;;;;;5072115;28;20380;-68
2023/07/13 05:42:57;;;;;;;6.07;1.75;;;;;;;;;;5071539;28;20032;-69
2023/07/13 05:45:23;;;;;;;5.88;1.73;;;;;;;;;;5052172;28;20535;-69
2023/07/13 05:47:48;;;;;;;7.53;1.50;;;;;;;;;;5051852;28;20030;-68
2023/07/13 05:50:14;;;;;;;8.57;1.60;;;;;;;;;;5051763;28;20035;-69
2023/07/13 05:52:45;;;;;;;6.13;1.33;;;;;;;;;;5051754;28;20083;-68
2023/07/13 05:55:11;;;;;;;49.00;5.72;;;;;;;;;;5033925;28;20029;-69
2023/07/13 05:57:36;;;;;;;6.30;1.45;;;;;;;;;;5051716;28;20033;-69
2023/07/13 06:00:02;;;;;;;8.02;1.70;;;;;;;;;;5051716;28;20135;-69
2023/07/13 06:02:28;;;;;;;4.38;1.42;;;;;;;;;;5051239;28;20025;-68
2023/07/13 06:04:53;;;;;;;6.45;1.42;;;;;;;;;;5051534;28;20381;-68
2023/07/13 06:07:18;;;;;;;3.75;1.42;;;;;;;;;;5051396;28;20024;-65
2023/07/13 06:09:44;;;;;;;3.03;1.33;;;;;;;;;;5051482;28;20028;-69
2023/07/13 06:12:09;;;;;;;5.85;1.42;;;;;;;;;;5033679;28;20033;-67
2023/07/13 06:14:35;;;;;;;3.45;1.45;;;;;;;;;;5051407;28;20017;-68
2023/07/13 06:17:00;;;;;;;3.65;1.30;;;;;;;;;;5051482;28;20045;-69
2023/07/13 06:19:26;;;;;;;4.50;1.40;;;;;;;;;;5057018;28;20037;-65
2023/07/13 06:21:51;;;;;;;7.38;1.40;;;;;;;;;;5071122;28;20020;-68
2023/07/13 06:24:17;;;;;;;4.80;1.23;;;;;;;;;;5070689;28;20028;-68
2023/07/13 06:26:42;;;;;;;5.38;1.60;;;;;;;;;;5070996;28;20032;-69
2023/07/13 06:29:08;;;;;;;5.38;1.40;;;;;;;;;;5070674;28;20028;-68
2023/07/13 06:31:33;;;;;;;8.88;1.70;;;;;;;;;;5066695;28;20048;-69
2023/07/13 06:33:59;;;;;;;7.45;1.70;;;;;;;;;;5059003;28;20020;-70
2023/07/13 06:36:24;;;;;;;8.13;2.13;;;;;;;;;;5061498;28;20430;-69
2023/07/13 06:38:50;;;;;;;10.35;1.77;;;;;;;;;;5068044;28;20027;-70
2023/07/13 06:41:15;;;;;;;5.93;1.65;;;;;;;;;;5057040;28;20470;-70
2023/07/13 06:43:41;;;;;;;5.03;1.30;;;;;;;;;;5052870;28;20033;-70
2023/07/13 06:46:07;;;;;;;6.45;1.30;;;;;;;;;;5052353;28;20029;-70
2023/07/13 06:48:32;;;;;;;5.63;1.30;;;;;;;;;;5057806;28;20042;-72
2023/07/13 06:50:57;;;;;;;5.40;1.25;;;;;;;;;;5072021;28;20029;-70
2023/07/13 06:53:23;;;;;;;4.60;1.08;;;;;;;;;;5072703;28;20177;-70
2023/07/13 06:55:49;;;;;;;10.68;1.88;;;;;;;;;;5072483;28;20482;-70
2023/07/13 06:58:16;;;;;;;6.13;1.20;;;;;;;;;;5072560;28;20050;-70
2023/07/13 07:00:42;;;;;;;10.00;1.63;;;;;;;;;;5072481;28;20040;-70
2023/07/13 07:03:07;;;;;;;7.32;1.75;;;;;;;;;;5072457;28;20024;-70
2023/07/13 07:05:33;;;;;;;8.48;1.35;;;;;;;;;;5067165;28;20025;-70
2023/07/13 07:07:59;;;;;;;6.63;1.52;;;;;;;;;;5052225;28;20029;-70
2023/07/13 07:10:25;;;;;;;5.13;1.35;;;;;;;;;;5051983;28;20040;-70
2023/07/13 07:12:51;;;;;;;5.20;1.27;;;;;;;;;;5051691;28;20094;-70
2023/07/13 07:15:17;;;;;;;5.03;1.50;;;;;;;;;;5052294;28;20068;-70
2023/07/13 07:17:43;;;;;;;3.97;1.25;;;;;;;;;;5052015;28;20045;-70
2023/07/13 07:20:09;;;;;;;6.90;1.30;;;;;;;;;;5062928;28;20035;-70
2023/07/13 07:22:35;;;;;;;3.10;1.13;;;;;;;;;;5072194;28;20063;-70
2023/07/13 07:25:00;;;;;;;4.10;1.08;;;;;;;;;;5072021;28;20457;-69
2023/07/13 07:27:26;;;;;;;5.72;1.40;;;;;;;;;;5057326;28;20029;-70
2023/07/13 07:29:51;;;;;;;3.83;1.00;;;;;;;;;;5051992;28;20025;-69
2023/07/13 07:32:16;;;;;;;3.13;1.00;;;;;;;;;;5058676;28;20066;-66
2023/07/13 07:34:42;;;;;;;3.63;1.10;;;;;;;;;;5071932;28;20029;-66
2023/07/13 07:37:11;;;;;;;2.35;0.95;;;;;;;;;;5072062;28;20020;-65
2023/07/13 07:39:37;;;;;;;3.97;1.10;;;;;;;;;;5071959;28;20473;-66
2023/07/13 07:42:03;;;;;;;5.20;1.00;;;;;;;;;;5071815;28;20319;-66
2023/07/13 07:44:31;;;;;;;3.65;1.20;;;;;;;;;;5071931;28;20036;-66
2023/07/13 07:46:56;;;;;;;3.30;1.17;;;;;;;;;;5071924;28;20505;-65
2023/07/13 07:49:22;;;;;;;3.63;1.15;;;;;;;;;;5071754;28;20123;-67
2023/07/13 07:51:47;;;;;;;2.72;1.10;;;;;;;;;;5071797;28;20096;-67
2023/07/13 07:54:13;;;;;;;3.28;1.10;;;;;;;;;;5071772;28;20067;-66
2023/07/13 07:56:38;;;;;;;4.43;1.10;;;;;;;;;;5071635;28;20078;-67
2023/07/13 07:59:04;;;;;;;3.15;1.20;;;;;;;;;;5071536;28;20028;-66
2023/07/13 08:01:29;;;;;;;3.85;1.00;;;;;;;;;;5071877;28;20037;-67
2023/07/13 08:03:55;;;;;;;3.72;1.00;;;;;;;;;;5071604;28;20020;-66
2023/07/13 08:06:21;;;;;;;4.03;0.93;;;;;;;;;;5071747;28;20039;-66
2023/07/13 08:08:47;;;;;;;1.77;0.82;;;;;;;;;;5071688;28;20384;-66
2023/07/13 08:11:13;;;;;;;3.17;0.95;;;;;;;;;;5071644;28;20024;-67
2023/07/13 08:13:39;;;;;;;2.13;0.80;;;;;;;;;;5071726;28;20020;-66
2023/07/13 08:16:05;;;;;;;2.22;0.80;;;;;;;;;;5071275;28;20481;-67
2023/07/13 08:18:31;;;;;;;4.07;0.90;;;;;;;;;;5071323;28;20048;-66
2023/07/13 08:20:56;;;;;;;1.90;0.82;;;;;;;;;;5071414;28;20029;-67
2023/07/13 08:23:23;;;;;;;2.90;0.80;;;;;;;;;;5071722;28;20127;-67
2023/07/13 08:25:54;;;;;;;3.38;1.00;;;;;;;;;;5073764;28;20346;-67
2023/07/13 08:28:21;;;;;;;7.43;1.10;;;;;;;;;;5055232;28;20029;-67
2023/07/13 08:30:48;;;;;;;7.15;1.23;;;;;;;;;;5055102;28;20125;-67
2023/07/13 08:33:18;;;;;;;3.72;0.80;;;;;;;;;;5055049;28;20099;-66
2023/07/13 08:35:48;;;;;;;1.55;0.90;;;;;;;;;;5054992;28;20504;-67
2023/07/13 08:38:14;;;;;;;4.05;1.05;;;;;;;;;;5073976;28;20397;-67
2023/07/13 08:40:41;;;;;;;2.95;1.00;;;;;;;;;;5075118;28;20024;-67
2023/07/13 08:43:13;;;;;;;3.45;0.90;;;;;;;;;;5075022;28;20323;-67
2023/07/13 08:45:53;;;;;;;3.17;1.00;;;;;;;;;;5074533;28;20024;-66
2023/07/13 08:48:30;;;;;;;5.78;1.25;;;;;;;;;;5074968;28;20074;-67
2023/07/13 08:51:12;;;;;;;5.32;1.00;;;;;;;;;;5074714;28;20032;-67
2023/07/13 08:53:43;;;;;;;4.10;1.10;;;;;;;;;;5074804;28;20199;-66
2023/07/13 08:56:22;;;;;;;4.10;0.85;;;;;;;;;;5074790;28;20028;-67
2023/07/13 08:58:54;;;;;;;5.13;1.40;;;;;;;;;;5074792;28;20033;-67
2023/07/13 09:01:44;;;;;;;2.63;1.10;;;;;;;;;;5074523;28;20027;-65
2023/07/13 09:04:16;;;;;;;2.65;0.90;;;;;;;;;;5074670;28;20021;-65
2023/07/13 09:06:54;;;;;;;4.35;1.15;;;;;;;;;;5074525;28;20020;-65
2023/07/13 09:09:52;;;;;;;2.78;0.90;;;;;;;;;;5074055;28;20078;-67
2023/07/13 09:12:30;;;;;;;1.67;0.85;;;;;;;;;;5074625;28;20028;-67
2023/07/13 09:14:57;;;;;;;1.80;0.80;;;;;;;;;;5074074;28;20112;-66
2023/07/13 09:17:35;;;;;;;8.15;1.27;;;;;;;;;;5074109;28;20041;-67
2023/07/13 09:20:10;;;;;;;5.05;0.95;;;;;;;;;;5074310;28;20024;-67
2023/07/13 09:22:37;;;;;;;3.08;1.00;;;;;;;;;;5074546;28;20051;-66
2023/07/13 09:25:30;;;;;;;3.30;1.30;;;;;;;;;;5073850;28;20037;-67
2023/07/13 09:28:01;;;;;;;7.80;1.30;;;;;;;;;;5073217;28;20362;-66
2023/07/13 09:30:36;;;;;;;4.30;1.08;;;;;;;;;;5073894;28;20021;-64
2023/07/13 09:33:02;;;;;;;3.83;1.00;;;;;;;;;;5074014;28;20512;-69
2023/07/13 09:35:29;;;;;;;4.20;1.10;;;;;;;;;;5073451;28;20056;-70
2023/07/13 09:38:19;;;;;;;3.45;1.30;;;;;;;;;;5073632;28;20028;-69
2023/07/13 09:40:59;;;;;;;5.70;1.10;;;;;;;;;;5061641;28;20480;-69
2023/07/13 09:43:24;;;;;;;3.33;1.10;;;;;;;;;;5073968;28;20528;-70
2023/07/13 09:45:50;;;;;;;4.70;1.20;;;;;;;;;;5073476;28;20116;-69
2023/07/13 09:48:17;;;;;;;3.50;1.10;;;;;;;;;;5073789;28;20028;-69
2023/07/13 09:50:44;;;;;;;2.00;1.08;;;;;;;;;;5073638;28;20466;-68
2023/07/13 09:53:17;;;;;;;2.08;1.00;;;;;;;;;;5073674;28;20067;-69
2023/07/13 09:55:45;;;;;;;8.60;1.50;;;;;;;;;;5073536;28;20131;-69
2023/07/13 09:58:14;;;;;;;2.15;0.80;;;;;;;;;;5073691;28;20086;-69
2023/07/13 10:00:43;;;;;;;4.63;1.58;;;;;;;;;;5073452;28;20032;-69
2023/07/13 10:03:23;;;;;;;4.13;1.37;;;;;;;;;;5073310;28;20096;-70
2023/07/13 10:05:52;;;;;;;;;;;;;;;;;;5073798;28;20028;-68
2023/07/13 10:08:30;;;;;;;4.03;1.17;;;;;;;;;;5073432;28;19948;-70
2023/07/13 10:11:02;;;;;;;3.80;1.13;;;;;;;;;;5073390;28;20039;-69
2023/07/13 10:13:31;;;;;;;2.40;1.20;;;;;;;;;;5073113;28;20036;-69
2023/07/13 10:15:58;;;;;;;4.93;1.30;;;;;;;;;;5073362;28;20025;-69
2023/07/13 10:18:25;;;;;;;3.72;1.10;;;;;;;;;;5073037;28;20132;-65
2023/07/13 10:21:10;;;;;;;5.28;1.52;;;;;;;;;;5072890;28;20556;-68
2023/07/13 10:23:35;;;;;;;2.55;1.10;;;;;;;;;;5073158;28;20461;-68
2023/07/13 10:26:01;;;;;;;7.53;3.70;;;;;;;;;;5069986;28;20036;-68
2023/07/13 10:28:32;;;;;;;4.22;1.45;;;;;;;;;;5052705;28;20028;-68
2023/07/13 10:31:00;;;;;;;4.35;1.30;;;;;;;;;;5052960;28;20025;-69
2023/07/13 10:33:26;;;;;;;5.35;1.45;;;;;;;;;;5052928;28;20028;-69
2023/07/13 10:36:01;;;;;;;4.80;1.27;;;;;;;;;;5052790;28;20104;-69
2023/07/13 10:38:28;;;;;;;7.03;1.40;;;;;;;;;;5052855;28;20075;-68
2023/07/13 10:41:05;;;;;;;2.85;1.02;;;;;;;;;;5052959;28;20055;-69
2023/07/13 10:43:37;;;;;;;7.13;1.33;;;;;;;;;;5052712;28;20086;-69
2023/07/13 10:46:05;;;;;;;4.30;1.23;;;;;;;;;;5052436;28;20215;-70
2023/07/13 10:48:34;;;;;;;4.30;1.20;;;;;;;;;;5035323;28;20029;-66
2023/07/13 10:51:01;;;;;;;6.38;1.27;;;;;;;;;;5052360;28;20033;-68
2023/07/13 10:53:32;;;;;;;2.70;1.10;;;;;;;;;;5052628;28;20032;-67
2023/07/13 10:56:08;;;;;;;3.88;1.20;;;;;;;;;;5052499;28;20559;-65
2023/07/13 10:58:38;;;;;;;2.25;1.05;;;;;;;;;;5052363;28;20477;-68
2023/07/13 11:01:17;;;;;;;4.25;1.25;;;;;;;;;;5052422;28;20025;-67
2023/07/13 11:04:01;;;;;;;3.92;1.30;;;;;;;;;;5052362;28;20111;-69
2023/07/13 11:06:44;;;;;;;3.83;1.30;;;;;;;;;;5052202;28;20025;-68
2023/07/13 11:09:40;;;;;;;5.18;1.23;;;;;;;;;;5052274;28;20029;-70
2023/07/13 11:12:28;;;;;;;3.13;1.00;;;;;;;;;;5033914;28;20032;-71
2023/07/13 11:14:57;;;;;;;2.35;0.98;;;;;;;;;;5051835;28;20041;-69
2023/07/13 11:17:32;;;;;;;6.40;1.20;;;;;;;;;;5059349;28;20113;-69
2023/07/13 11:20:31;;;;;;;3.22;1.10;;;;;;;;;;5061644;28;20036;-70
2023/07/13 11:23:19;;;;;;;3.73;1.20;;;;;;;;;;5065534;28;20116;-69
2023/07/13 11:25:45;;;;;;;3.72;1.20;;;;;;;;;;5057611;28;20016;-69
2023/07/13 11:28:10;;;;;;;5.57;1.38;;;;;;;;;;5072169;28;20020;-70
2023/07/13 11:30:39;;;;;;;5.18;1.20;;;;;;;;;;5072291;28;20070;-69
2023/07/13 11:33:12;;;;;;;2.38;1.10;;;;;;;;;;5072133;28;20469;-68
2023/07/13 11:35:45;;;;;;;5.32;1.30;;;;;;;;;;5072086;28;20044;-69
2023/07/13 11:38:17;;;;;;;3.85;1.40;;;;;;;;;;5072088;28;20119;-67
2023/07/13 11:40:45;;;;;;;2.47;1.10;;;;;;;;;;5071916;28;20150;-68
2023/07/13 11:43:14;;;;;;;3.30;0.90;;;;;;;;;;5072159;28;20024;-69
2023/07/13 11:45:39;;;;;;;2.75;1.15;;;;;;;;;;5053915;28;20128;-69
2023/07/13 11:48:05;;;;;;;3.38;1.00;;;;;;;;;;5072088;28;20115;-69
2023/07/13 11:50:30;;;;;;;3.67;1.30;;;;;;;;;;5071891;28;20025;-68
2023/07/13 11:52:59;;;;;;;3.97;1.10;;;;;;;;;;5072037;28;20035;-69
2023/07/13 11:55:25;;;;;;;4.47;1.20;;;;;;;;;;5071725;28;20021;-69
2023/07/13 11:57:53;;;;;;;2.03;1.02;;;;;;;;;;5053936;28;20083;-69
2023/07/13 12:00:23;;;;;;;5.15;1.20;;;;;;;;;;5074701;28;20485;-69
2023/07/13 12:02:52;;;;;;;3.78;1.25;;;;;;;;;;5075945;28;20112;-69
2023/07/13 12:05:20;;;;;;;4.60;1.17;;;;;;;;;;5075753;28;20032;-69
2023/07/13 12:07:46;;;;;;;6.05;1.23;;;;;;;;;;5075627;28;20035;-69
2023/07/13 12:10:17;;;;;;;5.72;1.20;;;;;;;;;;5075165;28;20031;-69
2023/07/13 12:12:55;;;;;;;4.10;1.38;;;;;;;;;;5075577;28;20028;-70
2023/07/13 12:15:22;;;;;;;4.10;1.00;;;;;;;;;;5075332;28;20460;-69
2023/07/13 12:17:48;;;;;;;6.35;1.20;;;;;;;;;;5075314;28;20037;-70
2023/07/13 12:20:23;;;;;;;3.13;1.00;;;;;;;;;;5075143;28;20082;-68
2023/07/13 12:22:50;;;;;;;5.20;1.75;;;;;;;;;;5075432;28;20024;-69
2023/07/13 12:25:17;;;;;;;8.25;1.45;;;;;;;;;;5074993;28;20464;-68
2023/07/13 12:27:47;;;;;;;2.38;0.93;;;;;;;;;;5058394;28;20468;-69
2023/07/13 12:30:26;;;;;;;;;;;;;;;;;;5055768;28;20472;-67
2023/07/13 12:33:10;;;;;;;6.45;1.75;;;;;;;;;;5054471;28;19913;-67
2023/07/13 12:35:47;;;;;;;4.38;1.48;;;;;;;;;;5055177;28;20071;-69
2023/07/13 12:38:13;;;;;;;3.58;1.35;;;;;;;;;;5073729;28;20028;-68
2023/07/13 12:40:40;;;;;;;3.70;1.25;;;;;;;;;;5075149;28;20028;-68
2023/07/13 12:43:12;;;;;;;3.58;1.10;;;;;;;;;;5074559;28;20024;-66
2023/07/13 12:45:38;;;;;;;3.13;1.02;;;;;;;;;;5074933;28;20096;-67
2023/07/13 12:48:13;;;;;;;3.42;1.40;;;;;;;;;;5075037;28;20052;-70
2023/07/13 12:50:41;;;;;;;2.22;1.10;;;;;;;;;;5074801;28;20033;-69
2023/07/13 12:53:28;;;;;;;8.45;1.48;;;;;;;;;;5074595;28;20154;-69
2023/07/13 12:55:59;;;;;;;4.30;1.17;;;;;;;;;;5074741;28;20028;-69
2023/07/13 12:58:30;;;;;;;4.88;1.30;;;;;;;;;;5074788;28;20139;-69
2023/07/13 13:00:58;;;;;;;3.45;1.30;;;;;;;;;;5074215;28;20028;-69
2023/07/13 13:03:34;;;;;;;2.92;1.30;;;;;;;;;;5074415;28;20399;-69
2023/07/13 13:06:02;;;;;;;3.25;1.13;;;;;;;;;;5074618;28;20028;-69
2023/07/13 13:08:28;;;;;;;8.55;1.70;;;;;;;;;;5074167;28;20469;-70
2023/07/13 13:10:54;;;;;;;5.55;1.20;;;;;;;;;;5073383;28;20125;-70
2023/07/13 13:13:19;;;;;;;3.28;1.20;;;;;;;;;;5074394;28;20094;-69
2023/07/13 13:15:45;;;;;;;7.15;1.27;;;;;;;;;;5074155;28;20058;-69
2023/07/13 13:18:22;;;;;;;3.67;1.30;;;;;;;;;;5074206;28;20183;-69
2023/07/13 13:20:48;;;;;;;4.15;1.30;;;;;;;;;;5074169;28;20365;-69
2023/07/13 13:23:17;;;;;;;3.65;1.27;;;;;;;;;;5074098;28;20041;-69
2023/07/13 13:25:46;;;;;;;4.85;1.23;;;;;;;;;;5073582;28;20035;-69
2023/07/13 13:28:16;;;;;;;3.75;1.27;;;;;;;;;;5054217;28;20045;-69
2023/07/13 13:30:43;;;;;;;2.45;1.10;;;;;;;;;;5054175;28;20110;-70
2023/07/13 13:33:13;;;;;;;3.95;1.48;;;;;;;;;;5057505;28;20067;-69
2023/07/13 13:35:40;;;;;;;5.38;1.10;;;;;;;;;;5071532;28;20064;-69
2023/07/13 13:38:14;;;;;;;2.88;1.30;;;;;;;;;;5073579;28;20497;-69
2023/07/13 13:40:41;;;;;;;3.10;1.10;;;;;;;;;;5055271;28;20048;-69
2023/07/13 13:43:26;;;;;;;5.10;1.20;;;;;;;;;;5072245;28;20039;-69
2023/07/13 13:45:55;;;;;;;5.22;1.42;;;;;;;;;;5073829;28;20050;-69
2023/07/13 13:48:31;;;;;;;2.35;1.25;;;;;;;;;;5073704;28;20049;-69
2023/07/13 13:50:57;;;;;;;5.38;1.20;;;;;;;;;;5063395;28;20072;-69
2023/07/13 13:53:25;;;;;;;3.60;1.38;;;;;;;;;;5073723;28;20040;-69
2023/07/13 13:55:52;;;;;;;2.78;1.20;;;;;;;;;;5073541;28;20020;-68
2023/07/13 13:58:18;;;;;;;3.63;1.45;;;;;;;;;;5073695;28;20031;-69
2023/07/13 14:00:45;;;;;;;3.08;1.35;;;;;;;;;;5073588;28;20024;-69
2023/07/13 14:03:19;;;;;;;9.55;1.58;;;;;;;;;;5073295;28;20120;-69
2023/07/13 14:05:46;;;;;;;3.25;1.20;;;;;;;;;;5073145;28;20032;-69
2023/07/13 14:08:15;;;;;;;3.50;1.52;;;;;;;;;;5058975;28;20029;-70
2023/07/13 14:10:42;;;;;;;5.43;1.40;;;;;;;;;;5053503;28;20031;-70
2023/07/13 14:13:20;;;;;;;3.22;1.35;;;;;;;;;;5053193;28;20090;-69
2023/07/13 14:15:46;;;;;;;3.40;1.35;;;;;;;;;;5053134;28;20052;-69
2023/07/13 14:18:11;;;;;;;3.65;1.15;;;;;;;;;;5052973;28;20123;-70
2023/07/13 14:20:37;;;;;;;2.55;1.15;;;;;;;;;;5067855;28;20119;-70
2023/07/13 14:23:03;;;;;;;4.72;1.98;;;;;;;;;;5072681;28;20028;-69
2023/07/13 14:25:28;;;;;;;2.88;1.45;;;;;;;;;;5072994;28;20052;-69
2023/07/13 14:27:58;;;;;;;19.38;2.92;;;;;;;;;;5054712;28;20029;-70
2023/07/13 14:30:24;;;;;;;;;;;;;;;;;;5053353;28;20063;-70
2023/07/13 14:32:50;;;;;;;32.28;5.85;;;;;;;;;;5052649;28;20369;-71
2023/07/13 14:35:18;;;;;;;22.42;4.55;;;;;;;;;;5056434;28;20508;-70
2023/07/13 14:37:44;;;;;;;14.73;3.40;;;;;;;;;;5072623;28;20067;-72
2023/07/13 14:40:19;;;;;;;8.70;2.38;;;;;;;;;;5072320;28;20095;-71
2023/07/13 14:42:44;;;;;;;20.45;4.00;;;;;;;;;;5072905;28;20029;-69
2023/07/13 14:45:20;;;;;;;9.70;2.45;;;;;;;;;;5072280;28;20400;-71
2023/07/13 14:47:46;;;;;;;10.85;2.30;;;;;;;;;;5072619;28;20013;-71
2023/07/13 14:50:15;;;;;;;5.63;1.50;;;;;;;;;;5070630;28;20071;-71
2023/07/13 14:52:41;;;;;;;9.73;1.65;;;;;;;;;;5071589;28;20028;-71